createdAt,value
2022-10-14T00:00:22.826Z,11.87
2022-10-14T00:02:49.848Z,11.90
2022-10-14T00:05:16.109Z,11.90
2022-10-14T00:07:42.440Z,11.80
2022-10-14T00:10:08.695Z,11.79
2022-10-14T00:12:34.940Z,11.84
2022-10-14T00:15:01.197Z,11.71
2022-10-14T00:17:27.438Z,11.80
2022-10-14T00:19:53.694Z,11.87
2022-10-14T00:22:19.943Z,11.95
2022-10-14T00:24:46.189Z,11.84
2022-10-14T00:27:12.444Z,11.75
2022-10-14T00:29:38.706Z,11.84
2022-10-14T00:32:05.064Z,11.94
2022-10-14T00:34:31.329Z,12.00
2022-10-14T00:36:57.612Z,12.01
2022-10-14T00:39:23.894Z,12.04
2022-10-14T00:41:50.200Z,12.05
2022-10-14T00:44:16.461Z,12.08
2022-10-14T00:46:42.733Z,12.09
2022-10-14T00:49:08.992Z,12.07
2022-10-14T00:51:35.257Z,12.13
2022-10-14T00:54:01.529Z,12.15
2022-10-14T00:56:27.787Z,12.17
2022-10-14T00:58:54.184Z,12.14
2022-10-14T01:01:20.436Z,12.16
2022-10-14T01:03:46.720Z,12.21
2022-10-14T01:06:12.978Z,12.19
2022-10-14T01:08:39.264Z,12.21
2022-10-14T01:11:05.527Z,12.20
2022-10-14T01:13:31.793Z,12.26
2022-10-14T01:15:58.054Z,12.29
2022-10-14T01:18:24.316Z,12.26
2022-10-14T01:20:50.619Z,12.25
2022-10-14T01:23:16.867Z,12.27
2022-10-14T01:25:43.262Z,12.32
2022-10-14T01:28:09.517Z,12.29
2022-10-14T01:30:35.807Z,12.30
2022-10-14T01:33:02.092Z,12.35
2022-10-14T01:35:28.381Z,12.38
2022-10-14T01:37:54.643Z,12.35
2022-10-14T01:40:20.895Z,12.11
2022-10-14T01:42:47.209Z,12.19
2022-10-14T01:45:13.672Z,12.24
2022-10-14T01:47:39.928Z,12.28
2022-10-14T01:50:06.217Z,12.25
2022-10-14T01:52:32.466Z,12.31
2022-10-14T01:54:58.734Z,12.33
2022-10-14T01:57:24.987Z,12.39
2022-10-14T01:59:51.261Z,12.35
2022-10-14T02:02:17.510Z,12.38
2022-10-14T02:04:43.797Z,12.41
2022-10-14T02:07:10.300Z,12.41
2022-10-14T02:09:36.623Z,12.38
2022-10-14T02:12:02.890Z,12.40
2022-10-14T02:14:29.183Z,12.37
2022-10-14T02:16:55.951Z,12.37
2022-10-14T02:19:22.246Z,12.41
2022-10-14T02:21:48.640Z,12.41
2022-10-14T02:24:14.947Z,12.44
2022-10-14T02:26:41.199Z,12.38
2022-10-14T02:29:07.468Z,12.40
2022-10-14T02:31:33.760Z,12.35
2022-10-14T02:34:00.024Z,12.33
2022-10-14T02:36:26.309Z,12.25
2022-10-14T02:38:52.554Z,12.18
2022-10-14T02:41:18.802Z,12.16
2022-10-14T02:43:45.073Z,12.02
2022-10-14T02:46:11.369Z,12.17
2022-10-14T02:48:37.629Z,12.22
2022-10-14T02:51:03.896Z,12.27
2022-10-14T02:53:30.753Z,12.27
2022-10-14T02:55:57.019Z,12.23
2022-10-14T02:58:23.282Z,12.33
2022-10-14T03:00:49.558Z,12.32
2022-10-14T03:03:15.845Z,12.20
2022-10-14T03:05:42.086Z,12.20
2022-10-14T03:08:08.386Z,12.30
2022-10-14T03:10:34.683Z,12.25
2022-10-14T03:13:00.944Z,12.13
2022-10-14T03:15:27.219Z,12.24
2022-10-14T03:17:53.499Z,12.30
2022-10-14T03:20:19.774Z,12.34
2022-10-14T03:22:46.040Z,12.35
2022-10-14T03:25:12.299Z,12.39
2022-10-14T03:27:38.572Z,12.42
2022-10-14T03:30:04.822Z,12.44
2022-10-14T03:32:31.244Z,12.45
2022-10-14T03:34:57.700Z,12.46
2022-10-14T03:37:24.140Z,12.45
2022-10-14T03:39:50.419Z,12.39
2022-10-14T03:42:16.663Z,12.39
2022-10-14T03:44:43.392Z,12.42
2022-10-14T03:47:09.638Z,12.44
2022-10-14T03:49:35.914Z,12.46
2022-10-14T03:52:02.175Z,12.45
2022-10-14T03:54:28.468Z,12.49
2022-10-14T03:56:54.727Z,12.48
2022-10-14T03:59:20.986Z,12.47
2022-10-14T04:01:47.298Z,12.47
2022-10-14T04:04:13.775Z,12.51
2022-10-14T04:06:40.031Z,12.51
2022-10-14T04:09:06.310Z,12.45
2022-10-14T04:11:32.584Z,12.52
2022-10-14T04:13:58.875Z,12.48
2022-10-14T04:16:25.327Z,12.48
2022-10-14T04:18:51.620Z,12.41
2022-10-14T04:21:17.880Z,12.45
2022-10-14T04:23:44.146Z,12.42
2022-10-14T04:26:10.474Z,12.39
2022-10-14T04:28:36.834Z,12.41
2022-10-14T04:31:03.126Z,12.45
2022-10-14T04:33:29.461Z,12.44
2022-10-14T04:35:55.717Z,12.44
2022-10-14T04:38:21.970Z,12.39
2022-10-14T04:40:48.231Z,12.32
2022-10-14T04:43:14.498Z,12.31
2022-10-14T04:45:40.756Z,12.35
2022-10-14T04:48:07.026Z,12.30
2022-10-14T04:50:33.270Z,12.31
2022-10-14T04:52:59.535Z,12.36
2022-10-14T04:55:25.778Z,12.38
2022-10-14T04:57:52.034Z,12.37
2022-10-14T05:00:18.372Z,12.39
2022-10-14T05:02:44.638Z,12.38
2022-10-14T05:05:10.901Z,12.35
2022-10-14T05:07:37.197Z,12.38
2022-10-14T05:10:04.578Z,12.40
2022-10-14T05:12:30.831Z,12.37
2022-10-14T05:14:57.091Z,12.38
2022-10-14T05:17:23.357Z,12.38
2022-10-14T05:19:49.674Z,12.34
2022-10-14T05:22:15.921Z,12.39
2022-10-14T05:24:42.178Z,12.37
2022-10-14T05:27:08.422Z,12.39
2022-10-14T05:29:34.706Z,12.40
2022-10-14T05:32:00.969Z,12.35
2022-10-14T05:34:27.232Z,12.37
2022-10-14T05:36:53.495Z,12.33
2022-10-14T05:39:19.766Z,12.35
2022-10-14T05:41:46.006Z,12.35
2022-10-14T05:44:13.302Z,12.33
2022-10-14T05:46:39.554Z,12.38
2022-10-14T05:49:06.023Z,12.39
2022-10-14T05:51:32.521Z,12.42
2022-10-14T05:53:58.784Z,12.37
2022-10-14T05:56:25.096Z,12.41
2022-10-14T05:58:51.353Z,12.43
2022-10-14T06:01:17.598Z,12.46
2022-10-14T06:03:43.867Z,12.48
2022-10-14T06:06:10.123Z,12.49
2022-10-14T06:08:36.415Z,12.47
2022-10-14T06:11:02.991Z,12.50
2022-10-14T06:13:29.284Z,12.45
2022-10-14T06:15:55.538Z,12.47
2022-10-14T06:18:22.000Z,12.49
2022-10-14T06:20:48.276Z,12.57
2022-10-14T06:23:14.535Z,12.58
2022-10-14T06:25:40.807Z,12.56
2022-10-14T06:28:07.071Z,12.47
2022-10-14T06:30:33.635Z,12.58
2022-10-14T06:32:59.896Z,12.47
2022-10-14T06:35:26.139Z,12.51
2022-10-14T06:37:52.399Z,12.64
2022-10-14T06:40:18.661Z,12.68
2022-10-14T06:42:45.294Z,12.70
2022-10-14T06:45:11.543Z,12.78
2022-10-14T06:47:37.783Z,12.85
2022-10-14T06:50:04.036Z,12.81
2022-10-14T06:52:30.297Z,12.79
2022-10-14T06:54:56.552Z,12.80
2022-10-14T06:57:22.828Z,12.81
2022-10-14T06:59:49.145Z,12.90
2022-10-14T07:02:15.438Z,12.93
2022-10-14T07:04:41.801Z,12.83
2022-10-14T07:07:08.439Z,12.98
2022-10-14T07:09:34.690Z,12.92
2022-10-14T07:12:01.417Z,13.04
2022-10-14T07:14:27.698Z,13.05
2022-10-14T07:16:54.029Z,13.13
2022-10-14T07:19:20.285Z,13.14
2022-10-14T07:21:46.727Z,13.18
2022-10-14T07:24:12.974Z,13.21
2022-10-14T07:26:39.250Z,13.30
2022-10-14T07:29:05.534Z,13.31
2022-10-14T07:31:31.807Z,13.35
2022-10-14T07:33:58.068Z,13.32
2022-10-14T07:36:24.434Z,13.49
2022-10-14T07:38:50.804Z,13.47
2022-10-14T07:41:17.190Z,13.60
2022-10-14T07:43:43.493Z,13.69
2022-10-14T07:46:09.780Z,13.71
2022-10-14T07:48:55.811Z,13.75
2022-10-14T07:51:22.440Z,13.71
2022-10-14T07:53:48.690Z,13.66
2022-10-14T07:56:14.995Z,13.68
2022-10-14T07:58:44.518Z,13.66
2022-10-14T08:01:11.103Z,13.65
2022-10-14T08:03:37.348Z,13.73
2022-10-14T08:06:03.658Z,13.89
2022-10-14T08:08:29.926Z,13.97
2022-10-14T08:10:56.189Z,14.08
2022-10-14T08:13:22.454Z,14.16
2022-10-14T08:15:48.767Z,14.17
2022-10-14T08:18:15.023Z,14.23
2022-10-14T08:20:41.705Z,14.17
2022-10-14T08:23:07.968Z,14.34
2022-10-14T08:25:34.361Z,14.29
2022-10-14T08:28:00.630Z,14.28
2022-10-14T08:30:26.965Z,14.32
2022-10-14T08:32:53.224Z,14.40
2022-10-14T08:35:19.470Z,14.37
2022-10-14T08:37:45.727Z,14.45
2022-10-14T08:40:11.988Z,14.54
2022-10-14T08:42:38.249Z,14.69
2022-10-14T08:45:08.670Z,14.72
2022-10-14T08:47:34.910Z,14.70
2022-10-14T08:50:03.983Z,14.61
2022-10-14T08:52:33.651Z,14.66
2022-10-14T08:55:02.807Z,14.80
2022-10-14T08:57:29.097Z,14.73
2022-10-14T08:59:55.403Z,14.73
2022-10-14T09:02:21.846Z,14.75
2022-10-14T09:04:48.585Z,14.94
2022-10-14T09:07:14.863Z,15.04
2022-10-14T09:09:41.147Z,15.00
2022-10-14T09:12:07.424Z,15.17
2022-10-14T09:14:33.717Z,15.28
2022-10-14T09:17:00.012Z,15.27
2022-10-14T09:19:27.051Z,15.23
2022-10-14T09:21:53.752Z,15.37
2022-10-14T09:24:20.158Z,15.28
2022-10-14T09:26:46.495Z,15.43
2022-10-14T09:29:12.823Z,15.63
2022-10-14T09:31:39.107Z,15.45
2022-10-14T09:34:05.372Z,15.45
2022-10-14T09:36:31.845Z,15.37
2022-10-14T09:39:02.284Z,15.32
2022-10-14T09:41:31.697Z,15.35
2022-10-14T09:43:57.961Z,15.30
2022-10-14T09:46:24.226Z,15.56
2022-10-14T09:48:50.487Z,15.73
2022-10-14T09:51:16.748Z,15.74
2022-10-14T09:53:45.162Z,15.90
2022-10-14T09:56:11.420Z,15.86
2022-10-14T09:58:37.694Z,15.66
2022-10-14T10:01:04.011Z,15.66
2022-10-14T10:03:32.435Z,15.64
2022-10-14T10:05:58.755Z,15.69
2022-10-14T10:08:26.507Z,15.71
2022-10-14T10:10:52.763Z,15.83
2022-10-14T10:13:19.154Z,15.94
2022-10-14T10:15:45.412Z,15.96
2022-10-14T10:18:11.675Z,16.02
2022-10-14T10:20:37.928Z,16.10
2022-10-14T10:23:04.197Z,15.96
2022-10-14T10:25:30.463Z,15.80
2022-10-14T10:27:56.747Z,15.89
2022-10-14T10:30:24.503Z,16.07
2022-10-14T10:32:50.771Z,16.11
2022-10-14T10:35:17.036Z,16.14
2022-10-14T10:37:44.999Z,16.39
2022-10-14T10:40:11.251Z,16.48
2022-10-14T10:42:39.748Z,16.52
2022-10-14T10:45:06.074Z,16.81
2022-10-14T10:47:32.375Z,16.85
2022-10-14T10:49:58.645Z,16.73
2022-10-14T10:52:25.132Z,16.86
2022-10-14T10:54:51.498Z,16.68
2022-10-14T10:57:17.745Z,16.77
2022-10-14T10:59:44.040Z,16.64
2022-10-14T11:02:10.732Z,16.73
2022-10-14T11:04:37.074Z,16.77
2022-10-14T11:07:27.004Z,16.95
2022-10-14T11:10:12.937Z,16.95
2022-10-14T11:12:39.201Z,16.76
2022-10-14T11:15:05.495Z,16.79
2022-10-14T11:17:31.845Z,16.81
2022-10-14T11:19:58.926Z,16.87
2022-10-14T11:22:28.810Z,17.00
2022-10-14T11:24:58.402Z,16.90
2022-10-14T11:27:25.020Z,16.92
2022-10-14T11:29:51.523Z,16.91
2022-10-14T11:32:17.786Z,16.90
2022-10-14T11:34:44.092Z,16.80
2022-10-14T11:37:10.345Z,16.82
2022-10-14T11:39:36.627Z,16.71
2022-10-14T11:42:03.759Z,16.79
2022-10-14T11:44:30.125Z,16.94
2022-10-14T11:46:56.559Z,17.00
2022-10-14T11:49:22.818Z,16.98
2022-10-14T11:51:49.100Z,16.76
2022-10-14T11:54:15.398Z,16.85
2022-10-14T11:56:41.648Z,16.65
2022-10-14T11:59:17.095Z,16.81
2022-10-14T12:01:43.343Z,16.85
2022-10-14T12:04:09.638Z,16.93
2022-10-14T12:06:35.957Z,17.06
2022-10-14T12:09:02.206Z,17.04
2022-10-14T12:11:28.784Z,17.06
2022-10-14T12:13:55.056Z,17.07
2022-10-14T12:16:21.342Z,17.20
2022-10-14T12:18:47.615Z,17.25
2022-10-14T12:21:14.114Z,17.40
2022-10-14T12:23:40.368Z,17.27
2022-10-14T12:26:06.624Z,17.42
2022-10-14T12:28:32.924Z,17.42
2022-10-14T12:31:00.675Z,17.39
2022-10-14T12:33:26.944Z,17.29
2022-10-14T12:35:53.450Z,17.29
2022-10-14T12:38:19.702Z,17.23
2022-10-14T12:40:49.197Z,17.22
2022-10-14T12:43:15.473Z,17.24
2022-10-14T12:48:09.226Z,17.40
2022-10-14T12:50:35.504Z,17.21
2022-10-14T12:53:01.795Z,17.29
2022-10-14T12:55:28.090Z,17.28
2022-10-14T12:57:54.988Z,17.22
2022-10-14T13:00:21.250Z,17.05
2022-10-14T13:02:47.735Z,17.05
2022-10-14T13:05:14.006Z,17.01
2022-10-14T13:07:41.775Z,17.04
2022-10-14T13:10:08.498Z,17.06
2022-10-14T13:12:35.100Z,17.30
2022-10-14T13:15:01.396Z,17.20
2022-10-14T13:17:28.095Z,17.16
2022-10-14T13:19:54.342Z,17.19
2022-10-14T13:22:20.618Z,17.17
2022-10-14T13:24:46.872Z,17.23
2022-10-14T13:30:15.990Z,17.22
2022-10-14T13:32:42.263Z,17.14
2022-10-14T13:35:09.087Z,17.12
2022-10-14T13:37:35.403Z,17.25
2022-10-14T13:40:01.703Z,17.29
2022-10-14T13:42:28.860Z,17.38
2022-10-14T13:44:55.157Z,17.39
2022-10-14T13:47:21.710Z,17.32
2022-10-14T13:49:48.137Z,17.27
2022-10-14T13:52:14.425Z,17.24
2022-10-14T13:54:40.700Z,17.20
2022-10-14T13:57:38.359Z,17.21
2022-10-14T14:02:39.774Z,17.12
2022-10-14T14:05:06.048Z,17.16
2022-10-14T14:08:08.008Z,17.16
2022-10-14T14:10:18.602Z,17.04
2022-10-14T14:12:45.004Z,17.16
2022-10-14T14:15:11.403Z,17.13
2022-10-14T14:17:37.661Z,17.10
2022-10-14T14:20:03.958Z,17.08
2022-10-14T14:22:30.294Z,17.28
2022-10-14T14:25:00.528Z,17.39
2022-10-14T14:27:30.287Z,17.54
2022-10-14T14:29:56.603Z,17.72
2022-10-14T14:32:23.000Z,17.72
2022-10-14T14:34:49.374Z,17.73
2022-10-14T14:40:02.102Z,17.75
2022-10-14T14:42:28.529Z,17.71
2022-10-14T14:44:54.806Z,17.72
2022-10-14T14:47:21.402Z,17.65
2022-10-14T14:49:47.919Z,17.65
2022-10-14T14:52:14.171Z,17.66
2022-10-14T14:54:40.435Z,17.71
2022-10-14T14:57:06.690Z,17.74
2022-10-14T14:59:33.003Z,17.70
2022-10-14T15:04:26.479Z,17.67
2022-10-14T15:09:56.359Z,17.48
2022-10-14T15:12:22.865Z,17.47
2022-10-14T15:14:49.286Z,17.50
2022-10-14T15:17:15.779Z,17.41
2022-10-14T15:19:42.027Z,17.40
2022-10-14T15:22:08.287Z,17.32
2022-10-14T15:24:34.554Z,17.32
2022-10-14T15:27:00.860Z,17.26
2022-10-14T15:29:27.126Z,17.27
2022-10-14T15:31:53.374Z,17.26
2022-10-14T15:34:19.664Z,17.26
2022-10-14T15:36:45.968Z,17.27
2022-10-14T15:39:13.621Z,17.23
2022-10-14T15:41:39.932Z,17.31
2022-10-14T15:44:06.195Z,17.27
2022-10-14T15:46:51.102Z,17.24
2022-10-14T15:49:17.368Z,17.25
2022-10-14T15:51:43.676Z,17.18
2022-10-14T15:54:09.947Z,17.13
2022-10-14T15:56:36.256Z,17.09
2022-10-14T15:59:02.508Z,17.00
2022-10-14T16:01:28.877Z,16.99
2022-10-14T16:03:55.403Z,16.90
2022-10-14T16:06:22.739Z,16.96
2022-10-14T16:08:49.169Z,16.92
2022-10-14T16:11:15.415Z,16.91
2022-10-14T16:13:41.680Z,16.85
2022-10-14T16:16:07.955Z,16.90
2022-10-14T16:18:34.212Z,16.88
2022-10-14T16:21:00.486Z,16.79
2022-10-14T16:23:29.567Z,16.81
2022-10-14T16:26:00.138Z,16.75
2022-10-14T16:28:26.453Z,16.72
2022-10-14T16:30:52.793Z,16.52
2022-10-14T16:33:19.062Z,16.59
2022-10-14T16:35:45.310Z,16.57
2022-10-14T16:38:11.589Z,16.47
2022-10-14T16:40:37.839Z,16.53
2022-10-14T16:43:04.095Z,16.46
2022-10-14T16:45:30.350Z,16.43
2022-10-14T16:47:57.149Z,16.38
2022-10-14T16:50:23.441Z,16.32
2022-10-14T16:53:08.659Z,16.23
2022-10-14T16:55:34.927Z,16.26
2022-10-14T16:58:01.191Z,16.17
2022-10-14T17:00:27.456Z,16.10
2022-10-14T17:02:54.868Z,16.00
2022-10-14T17:05:21.115Z,16.05
2022-10-14T17:07:47.376Z,15.97
2022-10-14T17:10:13.638Z,16.00
2022-10-14T17:12:39.962Z,16.00
2022-10-14T17:15:06.216Z,16.00
2022-10-14T17:17:32.492Z,15.97
2022-10-14T17:19:58.823Z,15.93
2022-10-14T17:22:25.387Z,15.86
2022-10-14T17:24:51.886Z,15.87
2022-10-14T17:27:24.100Z,15.86
2022-10-14T17:29:50.452Z,15.79
2022-10-14T17:32:17.509Z,15.77
2022-10-14T17:34:43.908Z,15.70
2022-10-14T17:37:10.177Z,15.50
2022-10-14T17:39:37.224Z,15.60
2022-10-14T17:42:03.839Z,15.70
2022-10-14T17:44:30.104Z,15.71
2022-10-14T17:46:57.032Z,15.73
2022-10-14T17:49:23.344Z,15.70
2022-10-14T17:51:49.616Z,15.70
2022-10-14T17:54:15.875Z,15.72
2022-10-14T17:56:42.970Z,15.72
2022-10-14T17:59:09.247Z,15.58
2022-10-14T18:01:37.996Z,15.66
2022-10-14T18:04:21.887Z,15.69
2022-10-14T18:06:48.428Z,15.68
2022-10-14T18:09:14.722Z,15.68
2022-10-14T18:12:07.724Z,15.63
2022-10-14T18:14:28.973Z,15.52
2022-10-14T18:16:55.235Z,15.56
2022-10-14T18:19:21.823Z,15.45
2022-10-14T18:21:48.118Z,15.55
2022-10-14T18:24:14.395Z,15.49
2022-10-14T18:26:41.107Z,15.55
2022-10-14T18:29:07.469Z,15.51
2022-10-14T18:31:33.790Z,15.52
2022-10-14T18:34:00.087Z,15.50
2022-10-14T18:36:26.339Z,15.39
2022-10-14T18:38:52.604Z,15.34
2022-10-14T18:41:18.892Z,15.30
2022-10-14T18:43:45.170Z,15.25
2022-10-14T18:46:13.120Z,15.25
2022-10-14T18:48:39.306Z,15.17
2022-10-14T18:51:05.565Z,15.12
2022-10-14T18:53:31.814Z,15.12
2022-10-14T18:56:00.927Z,15.12
2022-10-14T18:58:28.036Z,15.00
2022-10-14T19:00:54.339Z,15.02
2022-10-14T19:03:20.672Z,15.03
2022-10-14T19:05:47.149Z,15.05
2022-10-14T19:10:40.614Z,15.08
2022-10-14T19:13:08.094Z,15.07
2022-10-14T19:15:45.197Z,15.05
2022-10-14T19:18:15.100Z,15.05
2022-10-14T19:20:41.844Z,15.07
2022-10-14T19:23:08.130Z,15.08
2022-10-14T19:25:36.024Z,15.08
2022-10-14T19:28:02.276Z,15.06
2022-10-14T19:30:28.535Z,15.03
2022-10-14T19:32:54.817Z,15.00
2022-10-14T19:35:21.656Z,15.08
2022-10-14T19:37:48.039Z,15.08
2022-10-14T19:40:14.309Z,15.09
2022-10-14T19:42:40.615Z,15.08
2022-10-14T19:45:06.863Z,15.10
2022-10-14T19:47:33.123Z,15.07
2022-10-14T19:49:59.409Z,15.14
2022-10-14T19:52:25.683Z,15.10
2022-10-14T19:54:51.933Z,15.07
2022-10-14T19:57:18.205Z,15.15
2022-10-14T19:59:44.492Z,15.16
2022-10-14T20:02:10.747Z,15.20
2022-10-14T20:04:36.990Z,15.20
2022-10-14T20:07:03.244Z,15.21
2022-10-14T20:09:29.576Z,15.23
2022-10-14T20:11:55.922Z,15.25
2022-10-14T20:14:22.245Z,15.23
2022-10-14T20:16:52.277Z,15.24
2022-10-14T20:19:21.410Z,15.24
2022-10-14T20:21:47.793Z,15.15
2022-10-14T20:24:14.048Z,15.17
2022-10-14T20:26:41.339Z,15.23
2022-10-14T20:29:07.587Z,15.25
2022-10-14T20:31:33.838Z,15.27
2022-10-14T20:34:00.096Z,15.28
2022-10-14T20:36:26.361Z,15.20
2022-10-14T20:38:52.631Z,15.22
2022-10-14T20:41:18.897Z,15.23
2022-10-14T20:43:45.159Z,15.23
2022-10-14T20:46:11.419Z,15.25
2022-10-14T20:48:37.694Z,15.29
2022-10-14T20:51:03.996Z,15.35
2022-10-14T20:53:31.044Z,15.35
2022-10-14T20:55:57.307Z,15.37
2022-10-14T20:58:24.024Z,15.34
2022-10-14T21:00:50.295Z,15.32
2022-10-14T21:03:16.689Z,15.35
2022-10-14T21:05:42.944Z,15.38
2022-10-14T21:08:09.228Z,15.38
2022-10-14T21:10:35.792Z,15.35
2022-10-14T21:13:02.295Z,15.39
2022-10-14T21:15:28.544Z,15.37
2022-10-14T21:17:54.852Z,15.34
2022-10-14T21:20:21.112Z,15.40
2022-10-14T21:22:47.396Z,15.40
2022-10-14T21:25:13.732Z,15.39
2022-10-14T21:27:40.034Z,15.40
2022-10-14T21:30:06.292Z,15.41
2022-10-14T21:32:32.548Z,15.39
2022-10-14T21:34:59.005Z,15.40
2022-10-14T21:37:25.385Z,15.37
2022-10-14T21:39:51.643Z,15.33
2022-10-14T21:42:17.912Z,15.32
2022-10-14T21:44:44.162Z,15.37
2022-10-14T21:47:10.439Z,15.32
2022-10-14T21:49:36.691Z,15.33
2022-10-14T21:52:02.951Z,15.31
2022-10-14T21:54:29.201Z,15.27
2022-10-14T21:59:22.707Z,15.18
2022-10-14T22:01:49.004Z,15.26
2022-10-14T22:04:15.257Z,15.21
2022-10-14T22:06:41.631Z,15.20
2022-10-14T22:09:07.879Z,15.19
2022-10-14T22:11:34.153Z,15.22
2022-10-14T22:14:00.404Z,15.28
2022-10-14T22:16:28.740Z,15.25
2022-10-14T22:18:55.089Z,15.20
2022-10-14T22:21:21.356Z,15.25
2022-10-14T22:23:47.617Z,15.27
2022-10-14T22:26:13.896Z,15.20
2022-10-14T22:28:40.187Z,15.21
2022-10-14T22:31:06.495Z,15.27
2022-10-14T22:33:32.747Z,15.25
2022-10-14T22:35:59.123Z,15.28
2022-10-14T22:38:25.379Z,15.24
2022-10-14T22:40:51.630Z,15.24
2022-10-14T22:43:17.872Z,15.27
2022-10-14T22:45:44.122Z,15.29
2022-10-14T22:48:10.370Z,15.23
2022-10-14T22:50:36.651Z,15.29
2022-10-14T22:53:02.886Z,15.31
2022-10-14T22:55:29.290Z,15.29
2022-10-14T22:57:55.547Z,15.25
2022-10-14T23:00:21.886Z,15.27
2022-10-14T23:02:48.181Z,15.28
2022-10-14T23:05:14.468Z,15.28
2022-10-14T23:07:40.926Z,15.26
2022-10-14T23:10:07.186Z,15.26
2022-10-14T23:12:33.444Z,15.19
2022-10-14T23:14:59.710Z,15.21
2022-10-14T23:17:25.963Z,15.17
2022-10-14T23:19:52.232Z,15.13
2022-10-14T23:22:18.499Z,15.12
2022-10-14T23:24:44.765Z,15.11
2022-10-14T23:27:11.010Z,15.11
2022-10-14T23:29:37.282Z,15.09
2022-10-14T23:32:03.539Z,15.11
2022-10-14T23:34:30.447Z,15.10
2022-10-14T23:36:56.693Z,15.09
2022-10-14T23:39:22.976Z,15.06
2022-10-14T23:41:49.222Z,15.00
2022-10-14T23:44:15.470Z,15.03
2022-10-14T23:46:41.712Z,14.99
2022-10-14T23:49:24.859Z,14.96
2022-10-14T23:51:51.602Z,14.99
2022-10-14T23:54:17.867Z,14.98
2022-10-14T23:56:44.113Z,15.01
2022-10-14T23:59:10.370Z,15.01
